createdAt,value
2019-05-05T00:01:55.492Z,90.30
2019-05-05T00:04:49.818Z,90.50
2019-05-05T00:07:22.859Z,90.00
2019-05-05T00:09:51.898Z,88.70
2019-05-05T00:12:38.403Z,88.50
2019-05-05T00:15:29.692Z,89.00
2019-05-05T00:17:58.581Z,90.00
2019-05-05T00:20:27.752Z,90.70
2019-05-05T00:22:56.557Z,90.90
2019-05-05T00:25:25.338Z,91.00
2019-05-05T00:27:54.613Z,90.70
2019-05-05T00:30:24.942Z,90.80
2019-05-05T00:32:54.856Z,91.40
2019-05-05T00:35:25.237Z,91.20
2019-05-05T00:37:54.485Z,91.20
2019-05-05T00:40:24.848Z,91.40
2019-05-05T00:42:54.694Z,92.10
2019-05-05T00:45:25.290Z,92.30
2019-05-05T00:48:01.022Z,92.40
2019-05-05T00:50:30.200Z,92.40
2019-05-05T00:52:58.985Z,92.30
2019-05-05T00:55:27.717Z,92.00
2019-05-05T00:57:56.731Z,91.90
2019-05-05T01:00:36.854Z,91.40
2019-05-05T01:03:05.853Z,91.40
2019-05-05T01:05:58.265Z,91.00
2019-05-05T01:08:28.944Z,90.90
2019-05-05T01:10:58.461Z,90.60
2019-05-05T01:13:27.630Z,90.70
2019-05-05T01:15:56.760Z,90.60
2019-05-05T01:18:25.760Z,91.00
2019-05-05T01:20:55.212Z,91.30
2019-05-05T01:23:24.464Z,91.20
2019-05-05T01:25:54.423Z,91.10
2019-05-05T01:28:24.924Z,90.90
2019-05-05T01:30:57.184Z,90.60
2019-05-05T01:33:40.461Z,90.50
2019-05-05T01:36:09.353Z,90.50
2019-05-05T01:38:46.469Z,90.60
2019-05-05T01:41:22.129Z,91.00
2019-05-05T01:43:50.916Z,91.10
2019-05-05T01:46:19.697Z,91.00
2019-05-05T01:48:48.505Z,91.10
2019-05-05T01:51:17.226Z,91.50
2019-05-05T01:53:45.988Z,91.90
2019-05-05T01:56:15.456Z,91.80
2019-05-05T01:58:44.781Z,92.00
2019-05-05T02:01:15.295Z,91.60
2019-05-05T02:03:44.341Z,91.70
2019-05-05T02:06:14.213Z,91.70
2019-05-05T02:08:45.273Z,91.60
2019-05-05T02:11:15.476Z,91.50
2019-05-05T02:13:45.068Z,91.40
2019-05-05T02:16:15.053Z,91.40
2019-05-05T02:18:45.074Z,91.30
2019-05-05T02:21:14.306Z,91.00
2019-05-05T02:23:45.168Z,91.00
2019-05-05T02:26:15.241Z,90.90
2019-05-05T02:28:57.292Z,90.80
2019-05-05T02:31:39.360Z,90.60
2019-05-05T02:34:09.848Z,90.00
2019-05-05T02:36:38.965Z,89.30
2019-05-05T02:39:10.374Z,88.50
2019-05-05T02:41:40.484Z,87.60
2019-05-05T02:44:09.667Z,87.00
2019-05-05T02:46:50.181Z,86.50
2019-05-05T02:49:19.440Z,86.20
2019-05-05T02:51:48.986Z,85.80
2019-05-05T02:54:20.098Z,85.60
2019-05-05T02:56:50.797Z,85.50
2019-05-05T02:59:43.513Z,85.00
2019-05-05T03:02:24.269Z,84.80
2019-05-05T03:04:53.686Z,84.80
2019-05-05T03:07:25.809Z,84.30
2019-05-05T03:09:54.970Z,84.00
2019-05-05T03:12:26.177Z,83.80
2019-05-05T03:14:58.087Z,83.30
2019-05-05T03:17:27.258Z,83.60
2019-05-05T03:19:56.491Z,83.70
2019-05-05T03:22:26.702Z,83.90
2019-05-05T03:24:56.125Z,83.90
2019-05-05T03:27:25.418Z,84.20
2019-05-05T03:29:54.595Z,84.50
2019-05-05T03:32:25.510Z,84.30
2019-05-05T03:34:54.332Z,84.00
2019-05-05T03:37:25.041Z,84.10
2019-05-05T03:40:00.605Z,84.50
2019-05-05T03:42:45.926Z,84.50
2019-05-05T03:45:39.305Z,85.40
2019-05-05T03:48:08.445Z,86.20
2019-05-05T03:50:37.344Z,86.70
2019-05-05T03:53:06.185Z,86.90
2019-05-05T03:55:36.044Z,86.40
2019-05-05T03:58:05.160Z,86.90
2019-05-05T04:01:15.493Z,87.90
2019-05-05T04:03:44.510Z,88.50
2019-05-05T04:06:14.652Z,89.10
2019-05-05T04:08:44.420Z,89.90
2019-05-05T04:11:14.382Z,90.10
2019-05-05T04:13:43.840Z,90.40
2019-05-05T04:16:23.751Z,90.20
2019-05-05T04:18:57.235Z,90.20
2019-05-05T04:21:33.181Z,90.00
2019-05-05T04:23:56.405Z,90.00
2019-05-05T04:26:25.305Z,88.80
2019-05-05T04:28:54.217Z,89.00
2019-05-05T04:31:24.190Z,87.90
2019-05-05T04:33:53.803Z,87.90
2019-05-05T04:36:23.530Z,87.80
2019-05-05T04:38:54.588Z,87.20
2019-05-05T04:41:24.540Z,87.50
2019-05-05T04:43:54.699Z,86.60
2019-05-05T04:46:24.561Z,85.30
2019-05-05T04:49:07.255Z,85.60
2019-05-05T04:51:48.739Z,84.30
2019-05-05T04:54:24.403Z,84.00
2019-05-05T04:56:53.975Z,84.30
2019-05-05T04:59:23.561Z,83.10
2019-05-05T05:01:56.119Z,82.90
2019-05-05T05:04:36.720Z,82.60
2019-05-05T05:07:06.108Z,82.80
2019-05-05T05:09:34.896Z,81.20
2019-05-05T05:12:04.099Z,82.80
2019-05-05T05:14:33.745Z,82.60
2019-05-05T05:17:04.225Z,82.60
2019-05-05T05:19:33.542Z,82.20
2019-05-05T05:22:04.833Z,82.00
2019-05-05T05:24:34.344Z,79.50
2019-05-05T05:27:05.051Z,80.70
2019-05-05T05:29:34.613Z,81.00
2019-05-05T05:32:04.300Z,80.60
2019-05-05T05:34:34.457Z,80.50
2019-05-05T05:37:04.179Z,81.00
2019-05-05T05:39:44.051Z,80.90
2019-05-05T05:42:13.715Z,80.70
2019-05-05T05:45:14.593Z,79.90
2019-05-05T05:48:01.558Z,81.30
2019-05-05T05:50:34.075Z,81.10
2019-05-05T05:53:04.742Z,82.00
2019-05-05T05:55:34.317Z,82.50
2019-05-05T05:58:04.767Z,81.80
2019-05-05T06:00:34.500Z,82.80
2019-05-05T06:03:03.883Z,80.50
2019-05-05T06:05:34.344Z,81.30
2019-05-05T06:08:04.797Z,82.30
2019-05-05T06:10:34.038Z,81.20
2019-05-05T06:13:04.154Z,82.10
2019-05-05T06:15:33.900Z,80.00
2019-05-05T06:18:04.689Z,81.40
2019-05-05T06:20:34.410Z,82.20
2019-05-05T06:23:04.204Z,81.40
2019-05-05T06:25:34.297Z,82.60
2019-05-05T06:28:04.267Z,80.70
2019-05-05T06:30:33.768Z,79.80
2019-05-05T06:33:04.870Z,80.20
2019-05-05T06:35:34.154Z,80.70
2019-05-05T06:38:04.628Z,81.30
2019-05-05T06:40:53.598Z,79.80
2019-05-05T06:43:41.290Z,80.30
2019-05-05T06:46:11.559Z,79.50
2019-05-05T06:48:43.696Z,79.50
2019-05-05T06:51:14.033Z,77.80
2019-05-05T06:53:43.550Z,79.10
2019-05-05T06:56:14.574Z,78.10
2019-05-05T06:58:44.765Z,78.30
2019-05-05T07:01:14.419Z,77.20
2019-05-05T07:03:43.839Z,75.70
2019-05-05T07:06:14.623Z,74.30
2019-05-05T07:08:44.069Z,76.80
2019-05-05T07:11:14.581Z,74.00
2019-05-05T07:13:44.401Z,72.00
2019-05-05T07:16:14.911Z,74.30
2019-05-05T07:18:44.568Z,73.60
2019-05-05T07:21:14.227Z,72.20
2019-05-05T07:23:44.523Z,71.20
2019-05-05T07:26:14.344Z,68.50
2019-05-05T07:28:44.715Z,72.50
2019-05-05T07:31:14.388Z,65.40
2019-05-05T07:33:43.870Z,68.00
2019-05-05T07:36:39.041Z,64.50
2019-05-05T07:39:08.587Z,67.80
2019-05-05T07:41:40.342Z,67.20
2019-05-05T07:44:07.977Z,65.90
2019-05-05T07:46:36.754Z,66.40
2019-05-05T07:49:06.268Z,64.30
2019-05-05T07:51:35.015Z,64.70
2019-05-05T07:54:04.025Z,59.70
2019-05-05T07:56:34.430Z,63.00
2019-05-05T07:59:03.956Z,61.70
2019-05-05T08:01:33.827Z,59.50
2019-05-05T08:04:04.463Z,61.80
2019-05-05T08:06:33.909Z,57.10
2019-05-05T08:09:05.415Z,59.60
2019-05-05T08:11:34.416Z,59.10
2019-05-05T08:14:04.051Z,61.30
2019-05-05T08:16:46.951Z,58.80
2019-05-05T08:19:34.692Z,57.80
2019-05-05T08:22:04.153Z,55.50
2019-05-05T08:24:52.005Z,57.10
2019-05-05T08:27:48.971Z,56.80
2019-05-05T08:30:38.962Z,57.70
2019-05-05T08:33:07.899Z,56.80
2019-05-05T08:35:38.728Z,57.70
2019-05-05T08:38:07.568Z,57.90
2019-05-05T08:40:36.602Z,58.20
2019-05-05T08:43:05.325Z,55.20
2019-05-05T08:45:34.992Z,59.10
2019-05-05T08:48:04.828Z,57.40
2019-05-05T08:50:34.978Z,57.90
2019-05-05T08:53:04.880Z,58.40
2019-05-05T08:55:34.735Z,61.10
2019-05-05T08:58:04.566Z,56.40
2019-05-05T09:00:33.947Z,56.50
2019-05-05T09:03:03.749Z,58.50
2019-05-05T09:05:34.386Z,59.60
2019-05-05T09:08:04.582Z,59.10
2019-05-05T09:10:34.324Z,60.70
2019-05-05T09:13:03.881Z,60.30
2019-05-05T09:15:33.819Z,57.30
2019-05-05T09:18:04.791Z,58.00
2019-05-05T09:20:34.758Z,57.50
2019-05-05T09:23:04.247Z,55.90
2019-05-05T09:25:44.673Z,57.00
2019-05-05T09:28:36.649Z,57.10
2019-05-05T09:31:05.807Z,59.50
2019-05-05T09:33:34.543Z,61.10
2019-05-05T09:36:04.692Z,60.70
2019-05-05T09:38:34.882Z,63.00
2019-05-05T09:41:03.925Z,63.40
2019-05-05T09:43:34.554Z,60.30
2019-05-05T09:46:03.946Z,62.10
2019-05-05T09:48:33.582Z,57.40
2019-05-05T09:51:04.331Z,58.40
2019-05-05T09:53:34.521Z,57.90
2019-05-05T09:56:04.181Z,58.70
2019-05-05T09:58:34.763Z,59.00
2019-05-05T10:01:04.011Z,59.60
2019-05-05T10:03:34.074Z,59.00
2019-05-05T10:06:04.908Z,62.20
2019-05-05T10:08:34.693Z,57.20
2019-05-05T10:11:04.123Z,58.60
2019-05-05T10:13:33.761Z,59.70
2019-05-05T10:16:03.959Z,59.40
2019-05-05T10:18:35.505Z,57.60
2019-05-05T10:21:04.606Z,57.00
2019-05-05T10:23:35.503Z,56.20
2019-05-05T10:26:07.428Z,59.00
2019-05-05T10:28:36.238Z,59.60
2019-05-05T10:31:05.285Z,58.20
2019-05-05T10:33:36.488Z,56.70
2019-05-05T10:36:05.382Z,57.80
2019-05-05T10:38:35.772Z,57.10
2019-05-05T10:41:05.054Z,56.60
2019-05-05T10:43:34.324Z,57.50
2019-05-05T10:46:03.900Z,55.90
2019-05-05T10:48:34.049Z,55.10
2019-05-05T10:51:04.217Z,57.60
2019-05-05T10:53:33.224Z,57.70
2019-05-05T10:56:04.265Z,59.00
2019-05-05T10:58:33.602Z,58.00
2019-05-05T11:01:04.285Z,55.70
2019-05-05T11:03:34.320Z,55.50
2019-05-05T11:06:04.568Z,55.60
2019-05-05T11:08:34.958Z,57.70
2019-05-05T11:11:04.332Z,57.80
2019-05-05T11:13:34.469Z,56.50
2019-05-05T11:16:03.974Z,55.50
2019-05-05T11:18:34.492Z,48.40
2019-05-05T11:21:04.119Z,49.40
2019-05-05T11:23:34.599Z,50.20
2019-05-05T11:26:04.080Z,47.30
2019-05-05T11:28:33.925Z,47.50
2019-05-05T11:31:04.478Z,48.10
2019-05-05T11:33:56.785Z,49.00
2019-05-05T11:36:31.862Z,53.30
2019-05-05T11:39:00.663Z,52.40
2019-05-05T11:41:29.353Z,51.60
2019-05-05T11:43:58.079Z,53.30
2019-05-05T11:46:26.804Z,50.30
2019-05-05T11:48:55.517Z,50.90
2019-05-05T11:51:24.997Z,50.00
2019-05-05T11:53:54.159Z,50.30
2019-05-05T11:56:23.420Z,47.50
2019-05-05T11:58:54.520Z,43.70
2019-05-05T12:01:24.282Z,40.50
2019-05-05T12:03:53.663Z,44.40
2019-05-05T12:06:24.654Z,42.20
2019-05-05T12:08:53.709Z,39.90
2019-05-05T12:11:24.004Z,45.30
2019-05-05T12:13:54.586Z,45.50
2019-05-05T12:16:31.634Z,45.60
2019-05-05T12:19:05.936Z,46.10
2019-05-05T12:21:34.644Z,46.90
2019-05-05T12:24:08.600Z,47.10
2019-05-05T12:26:46.218Z,47.50
2019-05-05T12:29:39.627Z,47.60
2019-05-05T12:32:12.970Z,46.10
2019-05-05T12:34:41.596Z,47.00
2019-05-05T12:37:10.391Z,48.10
2019-05-05T12:39:39.461Z,47.90
2019-05-05T12:42:08.306Z,48.90
2019-05-05T12:44:41.648Z,47.50
2019-05-05T12:47:30.573Z,44.80
2019-05-05T12:49:59.365Z,45.90
2019-05-05T12:52:28.226Z,45.30
2019-05-05T12:54:57.156Z,45.80
2019-05-05T12:57:25.854Z,46.00
2019-05-05T12:59:54.733Z,45.20
2019-05-05T13:02:23.953Z,44.70
2019-05-05T13:04:53.589Z,41.00
2019-05-05T13:07:24.309Z,43.60
2019-05-05T13:09:54.526Z,44.20
2019-05-05T13:12:24.029Z,42.10
2019-05-05T13:14:54.465Z,42.70
2019-05-05T13:17:24.731Z,40.80
2019-05-05T13:20:13.931Z,41.80
2019-05-05T13:23:08.144Z,41.90
2019-05-05T13:25:56.041Z,40.40
2019-05-05T13:28:18.354Z,40.30
2019-05-05T13:30:47.118Z,39.90
2019-05-05T13:33:15.915Z,39.60
2019-05-05T13:35:44.738Z,43.30
2019-05-05T13:38:14.579Z,39.10
2019-05-05T13:40:44.085Z,41.70
2019-05-05T13:43:14.445Z,40.00
2019-05-05T13:45:50.170Z,40.60
2019-05-05T13:48:18.944Z,37.20
2019-05-05T13:50:51.473Z,36.30
2019-05-05T13:53:20.376Z,38.80
2019-05-05T13:55:49.557Z,37.80
2019-05-05T13:58:18.349Z,40.40
2019-05-05T14:00:47.239Z,40.20
2019-05-05T14:03:16.020Z,41.30
2019-05-05T14:05:45.122Z,40.60
2019-05-05T14:08:14.808Z,40.10
2019-05-05T14:10:43.732Z,39.80
2019-05-05T14:13:12.453Z,39.40
2019-05-05T14:15:41.238Z,39.50
2019-05-05T14:18:09.999Z,41.00
2019-05-05T14:20:39.092Z,39.30
2019-05-05T14:23:07.810Z,40.30
2019-05-05T14:25:36.525Z,41.40
2019-05-05T14:28:05.581Z,38.40
2019-05-05T14:30:43.493Z,40.50
2019-05-05T14:33:16.692Z,41.40
2019-05-05T14:35:53.981Z,40.40
2019-05-05T14:38:34.734Z,38.20
2019-05-05T14:41:04.190Z,37.20
2019-05-05T14:43:34.511Z,38.50
2019-05-05T14:46:03.919Z,40.30
2019-05-05T14:48:34.029Z,42.30
2019-05-05T14:51:03.958Z,39.20
2019-05-05T14:53:34.843Z,40.20
2019-05-05T14:56:04.604Z,40.00
2019-05-05T14:58:33.961Z,40.90
2019-05-05T15:01:04.478Z,41.80
2019-05-05T15:03:33.696Z,38.10
2019-05-05T15:06:18.000Z,37.30
2019-05-05T15:08:54.292Z,38.50
2019-05-05T15:11:33.856Z,40.40
2019-05-05T15:14:04.947Z,39.30
2019-05-05T15:16:34.707Z,40.50
2019-05-05T15:19:04.054Z,41.00
2019-05-05T15:21:33.984Z,42.40
2019-05-05T15:24:02.944Z,42.50
2019-05-05T15:26:34.349Z,41.60
2019-05-05T15:29:02.577Z,41.50
2019-05-05T15:31:31.549Z,40.80
2019-05-05T15:34:00.468Z,41.50
2019-05-05T15:36:29.737Z,41.40
2019-05-05T15:38:59.387Z,40.30
2019-05-05T15:41:28.089Z,40.70
2019-05-05T15:43:57.296Z,41.00
2019-05-05T15:46:26.033Z,39.10
2019-05-05T15:48:54.791Z,39.80
2019-05-05T15:51:23.741Z,40.40
2019-05-05T15:53:54.238Z,42.30
2019-05-05T15:56:24.450Z,40.20
2019-05-05T15:58:53.309Z,39.40
2019-05-05T16:01:23.701Z,40.50
2019-05-05T16:03:54.204Z,40.70
2019-05-05T16:06:23.739Z,39.70
2019-05-05T16:08:56.324Z,42.40
2019-05-05T16:11:23.445Z,42.10
2019-05-05T16:13:54.383Z,42.40
2019-05-05T16:16:29.814Z,41.30
2019-05-05T16:19:13.983Z,40.30
2019-05-05T16:21:54.877Z,41.80
2019-05-05T16:24:26.145Z,40.30
2019-05-05T16:26:55.609Z,38.40
2019-05-05T16:29:25.380Z,35.50
2019-05-05T16:31:54.466Z,31.20
2019-05-05T16:34:23.553Z,29.50
2019-05-05T16:36:54.441Z,29.20
2019-05-05T16:39:25.256Z,32.60
2019-05-05T16:41:53.780Z,35.30
2019-05-05T16:44:23.428Z,36.70
2019-05-05T16:46:53.981Z,37.90
2019-05-05T16:49:22.920Z,37.90
2019-05-05T16:52:00.770Z,39.60
2019-05-05T16:54:34.992Z,40.60
2019-05-05T16:57:05.733Z,41.30
2019-05-05T16:59:34.308Z,41.90
2019-05-05T17:02:04.735Z,41.50
2019-05-05T17:04:35.507Z,41.70
2019-05-05T17:07:04.158Z,42.50
2019-05-05T17:09:34.454Z,41.60
2019-05-05T17:12:09.946Z,42.10
2019-05-05T17:15:00.604Z,42.30
2019-05-05T17:17:35.588Z,41.10
2019-05-05T17:20:10.780Z,42.10
2019-05-05T17:22:44.720Z,42.30
2019-05-05T17:25:13.993Z,43.10
2019-05-05T17:27:48.558Z,43.00
2019-05-05T17:30:15.118Z,44.60
2019-05-05T17:32:44.170Z,45.00
2019-05-05T17:35:14.356Z,43.70
2019-05-05T17:37:44.264Z,41.80
2019-05-05T17:40:21.327Z,42.90
2019-05-05T17:43:23.976Z,42.40
2019-05-05T17:45:59.540Z,44.00
2019-05-05T17:48:33.233Z,45.10
2019-05-05T17:51:17.768Z,46.60
2019-05-05T17:54:11.445Z,48.20
2019-05-05T17:56:40.474Z,49.40
2019-05-05T17:59:09.248Z,50.60
2019-05-05T18:01:38.338Z,51.40
2019-05-05T18:04:07.062Z,51.20
2019-05-05T18:06:40.834Z,52.60
2019-05-05T18:09:23.830Z,52.50
2019-05-05T18:12:07.157Z,53.70
2019-05-05T18:14:36.652Z,55.40
2019-05-05T18:17:05.410Z,55.30
2019-05-05T18:19:34.443Z,54.30
2019-05-05T18:22:03.148Z,54.70
2019-05-05T18:24:33.678Z,55.20
2019-05-05T18:27:04.640Z,56.30
2019-05-05T18:29:33.992Z,56.40
2019-05-05T18:32:04.331Z,56.80
2019-05-05T18:34:33.546Z,56.60
2019-05-05T18:37:03.745Z,56.50
2019-05-05T18:39:34.258Z,55.60
2019-05-05T18:42:13.837Z,56.60
2019-05-05T18:44:44.867Z,56.70
2019-05-05T18:47:18.191Z,57.10
2019-05-05T18:49:46.442Z,57.60
2019-05-05T18:52:15.140Z,57.10
2019-05-05T18:54:43.954Z,57.00
2019-05-05T18:57:13.167Z,57.10
2019-05-05T18:59:41.950Z,56.60
2019-05-05T19:02:45.183Z,57.00
2019-05-05T19:05:44.073Z,57.40
2019-05-05T19:08:17.404Z,57.70
2019-05-05T19:10:46.509Z,58.20
2019-05-05T19:13:15.408Z,58.00
2019-05-05T19:15:45.263Z,58.30
2019-05-05T19:18:14.175Z,57.60
2019-05-05T19:20:49.682Z,57.20
2019-05-05T19:23:19.289Z,57.80
2019-05-05T19:25:47.999Z,58.00
2019-05-05T19:28:17.088Z,58.20
2019-05-05T19:30:45.905Z,57.60
2019-05-05T19:33:15.543Z,57.50
2019-05-05T19:35:47.296Z,57.30
2019-05-05T19:38:15.818Z,58.20
2019-05-05T19:40:45.358Z,57.80
2019-05-05T19:43:14.601Z,58.10
2019-05-05T19:45:44.769Z,57.90
2019-05-05T19:48:14.966Z,58.40
2019-05-05T19:50:54.244Z,58.90
2019-05-05T19:53:26.660Z,58.90
2019-05-05T19:55:56.502Z,59.10
2019-05-05T19:58:25.719Z,59.30
2019-05-05T20:00:57.390Z,60.10
2019-05-05T20:03:26.601Z,59.40
2019-05-05T20:05:55.693Z,60.20
2019-05-05T20:08:38.981Z,59.50
2019-05-05T20:10:55.397Z,61.00
2019-05-05T20:13:24.176Z,60.50
2019-05-05T20:16:04.507Z,60.50
2019-05-05T20:18:34.279Z,60.40
2019-05-05T20:21:06.840Z,60.10
2019-05-05T20:23:34.153Z,60.40
2019-05-05T20:26:04.017Z,59.90
2019-05-05T20:28:33.888Z,59.60
2019-05-05T20:31:03.640Z,59.50
2019-05-05T20:33:44.704Z,59.60
2019-05-05T20:36:16.905Z,59.50
2019-05-05T20:38:48.850Z,60.40
2019-05-05T20:41:19.500Z,59.90
2019-05-05T20:43:48.270Z,61.20
2019-05-05T20:46:16.979Z,60.80
2019-05-05T20:48:45.747Z,63.00
2019-05-05T20:51:14.478Z,61.50
2019-05-05T20:53:44.786Z,62.10
2019-05-05T20:56:14.921Z,62.50
2019-05-05T20:58:44.051Z,62.30
2019-05-05T21:01:14.005Z,62.70
2019-05-05T21:03:42.860Z,62.80
2019-05-05T21:06:13.662Z,63.30
2019-05-05T21:08:44.061Z,64.20
2019-05-05T21:11:14.135Z,63.00
2019-05-05T21:13:45.079Z,63.80
2019-05-05T21:16:14.333Z,64.90
2019-05-05T21:18:43.554Z,64.60
2019-05-05T21:21:17.426Z,65.20
2019-05-05T21:23:56.312Z,64.80
2019-05-05T21:26:44.130Z,64.60
2019-05-05T21:29:14.056Z,65.50
2019-05-05T21:31:43.798Z,66.20
2019-05-05T21:34:13.965Z,66.60
2019-05-05T21:36:44.800Z,66.30
2019-05-05T21:39:14.894Z,67.20
2019-05-05T21:41:44.214Z,66.90
2019-05-05T21:44:14.671Z,67.00
2019-05-05T21:46:43.851Z,67.80
2019-05-05T21:49:13.613Z,67.20
2019-05-05T21:52:01.718Z,67.40
2019-05-05T21:54:39.235Z,67.50
2019-05-05T21:57:34.576Z,68.30
2019-05-05T22:00:05.444Z,69.20
2019-05-05T22:02:34.596Z,70.20
2019-05-05T22:05:04.146Z,70.40
2019-05-05T22:07:33.655Z,71.90
2019-05-05T22:10:04.487Z,72.30
2019-05-05T22:12:36.229Z,72.70
2019-05-05T22:15:04.615Z,73.10
2019-05-05T22:17:36.179Z,73.40
2019-05-05T22:20:17.613Z,72.60
2019-05-05T22:22:46.930Z,72.70
2019-05-05T22:25:15.670Z,73.10
2019-05-05T22:27:44.417Z,72.10
2019-05-05T22:30:14.164Z,72.30
2019-05-05T22:32:44.132Z,72.60
2019-05-05T22:35:13.996Z,72.60
2019-05-05T22:37:44.038Z,72.90
2019-05-05T22:40:20.742Z,72.60
2019-05-05T22:42:49.702Z,74.00
2019-05-05T22:45:18.609Z,74.00
2019-05-05T22:47:47.604Z,75.00
2019-05-05T22:50:16.689Z,74.60
2019-05-05T22:52:45.395Z,75.30
2019-05-05T22:55:14.300Z,74.70
2019-05-05T22:57:45.094Z,74.30
2019-05-05T23:00:26.080Z,73.40
2019-05-05T23:02:51.653Z,72.50
2019-05-05T23:05:27.274Z,72.20
2019-05-05T23:07:56.258Z,72.30
2019-05-05T23:10:25.326Z,71.80
2019-05-05T23:12:54.464Z,71.70
2019-05-05T23:15:25.467Z,72.50
2019-05-05T23:18:16.298Z,72.80
2019-05-05T23:21:10.242Z,71.90
2019-05-05T23:23:48.160Z,71.30
2019-05-05T23:26:18.061Z,70.70
2019-05-05T23:28:46.766Z,70.30
2019-05-05T23:31:16.158Z,70.90
2019-05-05T23:33:45.132Z,70.00
2019-05-05T23:36:14.791Z,69.80
2019-05-05T23:38:44.906Z,69.80
2019-05-05T23:41:14.594Z,70.10
2019-05-05T23:43:45.086Z,69.30
2019-05-05T23:46:14.459Z,69.30
2019-05-05T23:48:44.149Z,69.30
2019-05-05T23:51:13.953Z,69.40
2019-05-05T23:53:44.486Z,69.40
2019-05-05T23:56:13.660Z,69.40
2019-05-05T23:59:19.168Z,69.30
